sensor_id;sensor_type;location;lat;lon;timestamp;P1;durP1;ratioP1;P2;durP2;ratioP2
23252;SDS011;11795;47.054;15.408;2023-05-28T00:00:00;9.2;;;5.7;;
23252;SDS011;11795;47.054;15.408;2023-05-28T00:02:00;9.2;;;5.7;;
23252;SDS011;11795;47.054;15.408;2023-05-28T00:04:00;9.0;;;5.5;;
23252;SDS011;11795;47.054;15.408;2023-05-28T00:06:00;9.0;;;5.5;;
23252;SDS011;11795;47.054;15.408;2023-05-28T00:08:00;9.0;;;5.5;;
23252;SDS011;11795;47.054;15.408;2023-05-28T00:10:00;7.1;;;5.2;;
23252;SDS011;11795;47.054;15.408;2023-05-28T00:12:00;7.1;;;5.2;;
23252;SDS011;11795;47.054;15.408;2023-05-28T00:14:00;7.4;;;4.7;;
23252;SDS011;11795;47.054;15.408;2023-05-28T00:16:00;7.4;;;4.7;;
23252;SDS011;11795;47.054;15.408;2023-05-28T00:18:01;7.4;;;4.7;;
23252;SDS011;11795;47.054;15.408;2023-05-28T00:20:00;7.7;;;4.2;;
23252;SDS011;11795;47.054;15.408;2023-05-28T00:22:00;7.7;;;4.2;;
23252;SDS011;11795;47.054;15.408;2023-05-28T00:24:00;7.7;;;4.6;;
23252;SDS011;11795;47.054;15.408;2023-05-28T00:26:00;7.7;;;4.6;;
23252;SDS011;11795;47.054;15.408;2023-05-28T00:28:00;7.7;;;4.6;;
23252;SDS011;11795;47.054;15.408;2023-05-28T00:30:00;7.6;;;4.8;;
23252;SDS011;11795;47.054;15.408;2023-05-28T00:32:00;7.6;;;4.8;;
23252;SDS011;11795;47.054;15.408;2023-05-28T00:34:01;7.9;;;4.6;;
23252;SDS011;11795;47.054;15.408;2023-05-28T00:36:00;7.9;;;4.6;;
23252;SDS011;11795;47.054;15.408;2023-05-28T00:38:00;7.9;;;4.6;;
23252;SDS011;11795;47.054;15.408;2023-05-28T00:40:00;6.8;;;4.4;;
23252;SDS011;11795;47.054;15.408;2023-05-28T00:42:01;6.8;;;4.4;;
23252;SDS011;11795;47.054;15.408;2023-05-28T00:44:00;8.2;;;4.6;;
23252;SDS011;11795;47.054;15.408;2023-05-28T00:46:01;8.2;;;4.6;;
23252;SDS011;11795;47.054;15.408;2023-05-28T00:48:00;8.2;;;4.6;;
23252;SDS011;11795;47.054;15.408;2023-05-28T00:50:00;8.4;;;4.7;;
23252;SDS011;11795;47.054;15.408;2023-05-28T00:52:00;8.4;;;4.7;;
23252;SDS011;11795;47.054;15.408;2023-05-28T00:54:00;7.2;;;4.7;;
23252;SDS011;11795;47.054;15.408;2023-05-28T00:56:00;7.2;;;4.7;;
23252;SDS011;11795;47.054;15.408;2023-05-28T00:58:05;7.2;;;4.7;;
23252;SDS011;11795;47.054;15.408;2023-05-28T01:00:01;7.2;;;4.4;;
23252;SDS011;11795;47.054;15.408;2023-05-28T01:02:01;7.2;;;4.4;;
23252;SDS011;11795;47.054;15.408;2023-05-28T01:04:01;7.2;;;4.5;;
23252;SDS011;11795;47.054;15.408;2023-05-28T01:06:01;7.2;;;4.5;;
23252;SDS011;11795;47.054;15.408;2023-05-28T01:08:00;7.2;;;4.5;;
23252;SDS011;11795;47.054;15.408;2023-05-28T01:10:00;6.6;;;4.5;;
23252;SDS011;11795;47.054;15.408;2023-05-28T01:12:00;6.6;;;4.5;;
23252;SDS011;11795;47.054;15.408;2023-05-28T01:14:00;8.3;;;5.2;;
23252;SDS011;11795;47.054;15.408;2023-05-28T01:16:00;8.3;;;5.2;;
23252;SDS011;11795;47.054;15.408;2023-05-28T01:18:01;8.3;;;5.2;;
23252;SDS011;11795;47.054;15.408;2023-05-28T01:20:10;7.1;;;4.5;;
23252;SDS011;11795;47.054;15.408;2023-05-28T01:22:02;7.1;;;4.5;;
23252;SDS011;11795;47.054;15.408;2023-05-28T01:24:00;8.3;;;5.2;;
23252;SDS011;11795;47.054;15.408;2023-05-28T01:26:00;8.3;;;5.2;;
23252;SDS011;11795;47.054;15.408;2023-05-28T01:28:01;8.3;;;5.2;;
23252;SDS011;11795;47.054;15.408;2023-05-28T01:30:01;6.7;;;4.7;;
23252;SDS011;11795;47.054;15.408;2023-05-28T01:32:00;6.7;;;4.7;;
23252;SDS011;11795;47.054;15.408;2023-05-28T01:34:00;8.2;;;4.8;;
23252;SDS011;11795;47.054;15.408;2023-05-28T01:36:00;8.2;;;4.8;;
23252;SDS011;11795;47.054;15.408;2023-05-28T01:38:01;8.2;;;4.8;;
23252;SDS011;11795;47.054;15.408;2023-05-28T01:40:00;7.7;;;4.9;;
23252;SDS011;11795;47.054;15.408;2023-05-28T01:42:02;7.7;;;4.9;;
23252;SDS011;11795;47.054;15.408;2023-05-28T01:44:00;7.8;;;4.7;;
23252;SDS011;11795;47.054;15.408;2023-05-28T01:46:00;7.8;;;4.7;;
23252;SDS011;11795;47.054;15.408;2023-05-28T01:48:00;7.8;;;4.7;;
23252;SDS011;11795;47.054;15.408;2023-05-28T01:50:00;6.0;;;4.5;;
23252;SDS011;11795;47.054;15.408;2023-05-28T01:52:01;6.0;;;4.5;;
23252;SDS011;11795;47.054;15.408;2023-05-28T01:54:00;7.9;;;4.8;;
23252;SDS011;11795;47.054;15.408;2023-05-28T01:56:01;7.9;;;4.8;;
23252;SDS011;11795;47.054;15.408;2023-05-28T01:58:00;7.9;;;4.8;;
23252;SDS011;11795;47.054;15.408;2023-05-28T02:00:00;8.8;;;5.5;;
23252;SDS011;11795;47.054;15.408;2023-05-28T02:02:00;8.8;;;5.5;;
23252;SDS011;11795;47.054;15.408;2023-05-28T02:04:01;7.7;;;5.2;;
23252;SDS011;11795;47.054;15.408;2023-05-28T02:06:00;7.7;;;5.2;;
23252;SDS011;11795;47.054;15.408;2023-05-28T02:08:00;7.7;;;5.2;;
23252;SDS011;11795;47.054;15.408;2023-05-28T02:10:00;8.6;;;5.1;;
23252;SDS011;11795;47.054;15.408;2023-05-28T02:12:03;8.6;;;5.1;;
23252;SDS011;11795;47.054;15.408;2023-05-28T02:14:00;6.8;;;4.5;;
23252;SDS011;11795;47.054;15.408;2023-05-28T02:16:01;6.8;;;4.5;;
23252;SDS011;11795;47.054;15.408;2023-05-28T02:18:00;6.8;;;4.5;;
23252;SDS011;11795;47.054;15.408;2023-05-28T02:20:00;7.5;;;4.7;;
23252;SDS011;11795;47.054;15.408;2023-05-28T02:22:00;7.5;;;4.7;;
23252;SDS011;11795;47.054;15.408;2023-05-28T02:24:00;8.4;;;5.0;;
23252;SDS011;11795;47.054;15.408;2023-05-28T02:26:01;8.4;;;5.0;;
23252;SDS011;11795;47.054;15.408;2023-05-28T02:28:00;8.4;;;5.0;;
23252;SDS011;11795;47.054;15.408;2023-05-28T02:30:00;8.7;;;4.8;;
23252;SDS011;11795;47.054;15.408;2023-05-28T02:32:00;8.7;;;4.8;;
23252;SDS011;11795;47.054;15.408;2023-05-28T02:34:00;7.5;;;4.5;;
23252;SDS011;11795;47.054;15.408;2023-05-28T02:36:00;7.5;;;4.5;;
23252;SDS011;11795;47.054;15.408;2023-05-28T02:38:00;7.5;;;4.5;;
23252;SDS011;11795;47.054;15.408;2023-05-28T02:40:00;8.5;;;4.9;;
23252;SDS011;11795;47.054;15.408;2023-05-28T02:42:01;8.5;;;4.9;;
23252;SDS011;11795;47.054;15.408;2023-05-28T02:44:00;8.5;;;4.9;;
23252;SDS011;11795;47.054;15.408;2023-05-28T02:46:00;10.5;;;5.0;;
23252;SDS011;11795;47.054;15.408;2023-05-28T02:48:00;10.5;;;5.0;;
23252;SDS011;11795;47.054;15.408;2023-05-28T02:50:00;7.1;;;4.4;;
23252;SDS011;11795;47.054;15.408;2023-05-28T02:52:00;7.1;;;4.4;;
23252;SDS011;11795;47.054;15.408;2023-05-28T02:54:00;7.1;;;4.4;;
23252;SDS011;11795;47.054;15.408;2023-05-28T02:56:00;7.7;;;4.1;;
23252;SDS011;11795;47.054;15.408;2023-05-28T02:58:00;7.7;;;4.1;;
23252;SDS011;11795;47.054;15.408;2023-05-28T03:00:00;7.2;;;4.8;;
23252;SDS011;11795;47.054;15.408;2023-05-28T03:02:00;7.2;;;4.8;;
23252;SDS011;11795;47.054;15.408;2023-05-28T03:04:00;7.2;;;4.8;;
23252;SDS011;11795;47.054;15.408;2023-05-28T03:06:00;8.0;;;4.9;;
23252;SDS011;11795;47.054;15.408;2023-05-28T03:08:00;8.0;;;4.9;;
23252;SDS011;11795;47.054;15.408;2023-05-28T03:10:00;7.3;;;4.8;;
23252;SDS011;11795;47.054;15.408;2023-05-28T03:12:00;7.3;;;4.8;;
23252;SDS011;11795;47.054;15.408;2023-05-28T03:14:00;7.3;;;4.8;;
23252;SDS011;11795;47.054;15.408;2023-05-28T03:16:00;8.0;;;5.0;;
23252;SDS011;11795;47.054;15.408;2023-05-28T03:18:00;8.0;;;5.0;;
23252;SDS011;11795;47.054;15.408;2023-05-28T03:20:00;8.0;;;4.5;;
23252;SDS011;11795;47.054;15.408;2023-05-28T03:22:00;8.0;;;4.5;;
23252;SDS011;11795;47.054;15.408;2023-05-28T03:24:00;8.0;;;4.5;;
23252;SDS011;11795;47.054;15.408;2023-05-28T03:26:00;8.4;;;4.6;;
23252;SDS011;11795;47.054;15.408;2023-05-28T03:28:00;8.4;;;4.6;;
23252;SDS011;11795;47.054;15.408;2023-05-28T03:30:00;6.8;;;4.8;;
23252;SDS011;11795;47.054;15.408;2023-05-28T03:32:00;6.8;;;4.8;;
23252;SDS011;11795;47.054;15.408;2023-05-28T03:34:00;6.8;;;4.8;;
23252;SDS011;11795;47.054;15.408;2023-05-28T03:36:00;9.9;;;6.8;;
23252;SDS011;11795;47.054;15.408;2023-05-28T03:38:00;9.9;;;6.8;;
23252;SDS011;11795;47.054;15.408;2023-05-28T03:40:00;6.7;;;5.1;;
23252;SDS011;11795;47.054;15.408;2023-05-28T03:42:01;6.7;;;5.1;;
23252;SDS011;11795;47.054;15.408;2023-05-28T03:44:00;6.7;;;5.1;;
23252;SDS011;11795;47.054;15.408;2023-05-28T03:46:00;7.0;;;4.8;;
23252;SDS011;11795;47.054;15.408;2023-05-28T03:48:01;7.0;;;4.8;;
23252;SDS011;11795;47.054;15.408;2023-05-28T03:50:00;8.9;;;5.0;;
23252;SDS011;11795;47.054;15.408;2023-05-28T03:52:00;8.9;;;5.0;;
23252;SDS011;11795;47.054;15.408;2023-05-28T03:54:00;8.9;;;5.0;;
23252;SDS011;11795;47.054;15.408;2023-05-28T03:56:01;7.5;;;4.6;;
23252;SDS011;11795;47.054;15.408;2023-05-28T03:58:00;7.5;;;4.6;;
23252;SDS011;11795;47.054;15.408;2023-05-28T04:00:00;7.6;;;4.6;;
23252;SDS011;11795;47.054;15.408;2023-05-28T04:02:00;7.6;;;4.6;;
23252;SDS011;11795;47.054;15.408;2023-05-28T04:04:01;7.6;;;4.6;;
23252;SDS011;11795;47.054;15.408;2023-05-28T04:06:00;8.5;;;4.9;;
23252;SDS011;11795;47.054;15.408;2023-05-28T04:08:01;8.5;;;4.9;;
23252;SDS011;11795;47.054;15.408;2023-05-28T04:10:00;6.2;;;4.3;;
23252;SDS011;11795;47.054;15.408;2023-05-28T04:12:01;6.2;;;4.3;;
23252;SDS011;11795;47.054;15.408;2023-05-28T04:14:00;6.2;;;4.3;;
23252;SDS011;11795;47.054;15.408;2023-05-28T04:16:01;7.4;;;4.3;;
23252;SDS011;11795;47.054;15.408;2023-05-28T04:18:00;7.4;;;4.3;;
23252;SDS011;11795;47.054;15.408;2023-05-28T04:20:00;5.9;;;4.8;;
23252;SDS011;11795;47.054;15.408;2023-05-28T04:22:00;5.9;;;4.8;;
23252;SDS011;11795;47.054;15.408;2023-05-28T04:24:00;5.9;;;4.8;;
23252;SDS011;11795;47.054;15.408;2023-05-28T04:26:00;8.3;;;4.9;;
23252;SDS011;11795;47.054;15.408;2023-05-28T04:28:00;8.3;;;4.9;;
23252;SDS011;11795;47.054;15.408;2023-05-28T04:30:00;7.6;;;4.8;;
23252;SDS011;11795;47.054;15.408;2023-05-28T04:32:00;7.6;;;4.8;;
23252;SDS011;11795;47.054;15.408;2023-05-28T04:34:00;7.6;;;4.8;;
23252;SDS011;11795;47.054;15.408;2023-05-28T04:36:01;8.6;;;5.2;;
23252;SDS011;11795;47.054;15.408;2023-05-28T04:38:01;8.6;;;5.2;;
23252;SDS011;11795;47.054;15.408;2023-05-28T04:40:00;6.9;;;4.7;;
23252;SDS011;11795;47.054;15.408;2023-05-28T04:42:04;6.9;;;4.7;;
23252;SDS011;11795;47.054;15.408;2023-05-28T04:44:00;6.9;;;4.7;;
23252;SDS011;11795;47.054;15.408;2023-05-28T04:46:03;7.1;;;4.2;;
23252;SDS011;11795;47.054;15.408;2023-05-28T04:48:01;7.1;;;4.2;;
23252;SDS011;11795;47.054;15.408;2023-05-28T04:50:00;8.1;;;4.5;;
23252;SDS011;11795;47.054;15.408;2023-05-28T04:52:00;8.1;;;4.5;;
23252;SDS011;11795;47.054;15.408;2023-05-28T04:54:00;8.1;;;4.5;;
23252;SDS011;11795;47.054;15.408;2023-05-28T04:56:00;6.4;;;4.5;;
23252;SDS011;11795;47.054;15.408;2023-05-28T04:58:00;6.4;;;4.5;;
23252;SDS011;11795;47.054;15.408;2023-05-28T05:00:00;8.5;;;5.0;;
23252;SDS011;11795;47.054;15.408;2023-05-28T05:02:00;8.5;;;5.0;;
23252;SDS011;11795;47.054;15.408;2023-05-28T05:04:00;8.5;;;5.0;;
23252;SDS011;11795;47.054;15.408;2023-05-28T05:06:00;7.3;;;4.5;;
23252;SDS011;11795;47.054;15.408;2023-05-28T05:08:01;7.3;;;4.5;;
23252;SDS011;11795;47.054;15.408;2023-05-28T05:10:00;6.7;;;4.4;;
23252;SDS011;11795;47.054;15.408;2023-05-28T05:12:00;6.7;;;4.4;;
23252;SDS011;11795;47.054;15.408;2023-05-28T05:14:00;6.7;;;4.4;;
23252;SDS011;11795;47.054;15.408;2023-05-28T05:16:00;7.5;;;4.6;;
23252;SDS011;11795;47.054;15.408;2023-05-28T05:18:00;7.5;;;4.6;;
23252;SDS011;11795;47.054;15.408;2023-05-28T05:20:01;8.0;;;4.3;;
23252;SDS011;11795;47.054;15.408;2023-05-28T05:22:00;8.0;;;4.3;;
23252;SDS011;11795;47.054;15.408;2023-05-28T05:24:00;8.0;;;4.3;;
23252;SDS011;11795;47.054;15.408;2023-05-28T05:26:00;6.7;;;4.1;;
23252;SDS011;11795;47.054;15.408;2023-05-28T05:28:00;6.7;;;4.1;;
23252;SDS011;11795;47.054;15.408;2023-05-28T05:30:00;7.5;;;4.6;;
23252;SDS011;11795;47.054;15.408;2023-05-28T05:32:00;7.5;;;4.6;;
23252;SDS011;11795;47.054;15.408;2023-05-28T05:34:00;7.5;;;4.6;;
23252;SDS011;11795;47.054;15.408;2023-05-28T05:36:00;8.2;;;4.6;;
23252;SDS011;11795;47.054;15.408;2023-05-28T05:38:00;8.2;;;4.6;;
23252;SDS011;11795;47.054;15.408;2023-05-28T05:40:00;7.6;;;4.5;;
23252;SDS011;11795;47.054;15.408;2023-05-28T05:42:01;7.6;;;4.5;;
23252;SDS011;11795;47.054;15.408;2023-05-28T05:44:00;7.6;;;4.5;;
23252;SDS011;11795;47.054;15.408;2023-05-28T05:46:00;7.7;;;4.3;;
23252;SDS011;11795;47.054;15.408;2023-05-28T05:48:00;7.7;;;4.3;;
23252;SDS011;11795;47.054;15.408;2023-05-28T05:50:00;8.6;;;4.3;;
23252;SDS011;11795;47.054;15.408;2023-05-28T05:52:00;8.6;;;4.3;;
23252;SDS011;11795;47.054;15.408;2023-05-28T05:54:00;8.6;;;4.3;;
23252;SDS011;11795;47.054;15.408;2023-05-28T05:56:00;6.6;;;4.2;;
23252;SDS011;11795;47.054;15.408;2023-05-28T05:58:01;6.6;;;4.2;;
23252;SDS011;11795;47.054;15.408;2023-05-28T06:00:00;6.9;;;4.6;;
23252;SDS011;11795;47.054;15.408;2023-05-28T06:02:00;6.9;;;4.6;;
23252;SDS011;11795;47.054;15.408;2023-05-28T06:04:00;6.9;;;4.6;;
23252;SDS011;11795;47.054;15.408;2023-05-28T06:06:00;6.5;;;4.0;;
23252;SDS011;11795;47.054;15.408;2023-05-28T06:08:00;6.5;;;4.0;;
23252;SDS011;11795;47.054;15.408;2023-05-28T06:10:00;9.6;;;4.5;;
23252;SDS011;11795;47.054;15.408;2023-05-28T06:12:01;9.6;;;4.5;;
23252;SDS011;11795;47.054;15.408;2023-05-28T06:14:00;9.6;;;4.5;;
23252;SDS011;11795;47.054;15.408;2023-05-28T06:16:00;6.5;;;4.1;;
23252;SDS011;11795;47.054;15.408;2023-05-28T06:18:01;6.5;;;4.1;;
23252;SDS011;11795;47.054;15.408;2023-05-28T06:20:01;6.5;;;3.8;;
23252;SDS011;11795;47.054;15.408;2023-05-28T06:22:00;6.5;;;3.8;;
23252;SDS011;11795;47.054;15.408;2023-05-28T06:24:00;6.5;;;3.8;;
23252;SDS011;11795;47.054;15.408;2023-05-28T06:26:01;7.1;;;4.0;;
23252;SDS011;11795;47.054;15.408;2023-05-28T06:28:00;7.1;;;4.0;;
23252;SDS011;11795;47.054;15.408;2023-05-28T06:30:00;5.7;;;3.6;;
23252;SDS011;11795;47.054;15.408;2023-05-28T06:32:00;5.7;;;3.6;;
23252;SDS011;11795;47.054;15.408;2023-05-28T06:34:01;5.7;;;3.6;;
23252;SDS011;11795;47.054;15.408;2023-05-28T06:36:00;7.6;;;3.9;;
23252;SDS011;11795;47.054;15.408;2023-05-28T06:38:00;7.6;;;3.9;;
23252;SDS011;11795;47.054;15.408;2023-05-28T06:40:00;7.5;;;4.2;;
23252;SDS011;11795;47.054;15.408;2023-05-28T06:42:00;7.5;;;4.2;;
23252;SDS011;11795;47.054;15.408;2023-05-28T06:44:00;7.5;;;4.2;;
23252;SDS011;11795;47.054;15.408;2023-05-28T06:46:00;7.4;;;4.2;;
23252;SDS011;11795;47.054;15.408;2023-05-28T06:48:00;7.4;;;4.2;;
23252;SDS011;11795;47.054;15.408;2023-05-28T06:50:00;8.3;;;4.5;;
23252;SDS011;11795;47.054;15.408;2023-05-28T06:52:00;8.3;;;4.5;;
23252;SDS011;11795;47.054;15.408;2023-05-28T06:54:00;8.3;;;4.5;;
23252;SDS011;11795;47.054;15.408;2023-05-28T06:56:00;8.9;;;4.7;;
23252;SDS011;11795;47.054;15.408;2023-05-28T06:58:00;8.9;;;4.7;;
23252;SDS011;11795;47.054;15.408;2023-05-28T07:00:00;8.2;;;4.4;;
23252;SDS011;11795;47.054;15.408;2023-05-28T07:02:00;8.2;;;4.4;;
23252;SDS011;11795;47.054;15.408;2023-05-28T07:04:00;8.2;;;4.4;;
23252;SDS011;11795;47.054;15.408;2023-05-28T07:06:02;8.2;;;4.4;;
23252;SDS011;11795;47.054;15.408;2023-05-28T07:08:00;8.2;;;4.4;;
23252;SDS011;11795;47.054;15.408;2023-05-28T07:10:00;8.7;;;4.2;;
23252;SDS011;11795;47.054;15.408;2023-05-28T07:12:00;8.7;;;4.2;;
23252;SDS011;11795;47.054;15.408;2023-05-28T07:14:00;8.7;;;4.2;;
23252;SDS011;11795;47.054;15.408;2023-05-28T07:16:00;7.1;;;4.1;;
23252;SDS011;11795;47.054;15.408;2023-05-28T07:18:01;7.1;;;4.1;;
23252;SDS011;11795;47.054;15.408;2023-05-28T07:20:00;8.6;;;4.3;;
23252;SDS011;11795;47.054;15.408;2023-05-28T07:22:00;8.6;;;4.3;;
23252;SDS011;11795;47.054;15.408;2023-05-28T07:24:00;8.6;;;4.3;;
23252;SDS011;11795;47.054;15.408;2023-05-28T07:26:00;9.2;;;4.3;;
23252;SDS011;11795;47.054;15.408;2023-05-28T07:28:00;9.2;;;4.3;;
23252;SDS011;11795;47.054;15.408;2023-05-28T07:30:00;7.4;;;3.9;;
23252;SDS011;11795;47.054;15.408;2023-05-28T07:32:00;7.4;;;3.9;;
23252;SDS011;11795;47.054;15.408;2023-05-28T07:34:00;7.4;;;3.9;;
23252;SDS011;11795;47.054;15.408;2023-05-28T07:36:01;7.5;;;4.1;;
23252;SDS011;11795;47.054;15.408;2023-05-28T07:38:01;7.5;;;4.1;;
23252;SDS011;11795;47.054;15.408;2023-05-28T07:40:00;8.3;;;4.6;;
23252;SDS011;11795;47.054;15.408;2023-05-28T07:42:00;8.3;;;4.6;;
23252;SDS011;11795;47.054;15.408;2023-05-28T07:44:00;8.3;;;4.6;;
23252;SDS011;11795;47.054;15.408;2023-05-28T07:46:00;7.5;;;4.2;;
23252;SDS011;11795;47.054;15.408;2023-05-28T07:48:00;7.5;;;4.2;;
23252;SDS011;11795;47.054;15.408;2023-05-28T07:50:00;7.3;;;4.1;;
23252;SDS011;11795;47.054;15.408;2023-05-28T07:52:00;7.3;;;4.1;;
23252;SDS011;11795;47.054;15.408;2023-05-28T07:54:00;7.3;;;4.1;;
23252;SDS011;11795;47.054;15.408;2023-05-28T07:56:00;9.4;;;4.2;;
23252;SDS011;11795;47.054;15.408;2023-05-28T07:58:00;9.4;;;4.2;;
23252;SDS011;11795;47.054;15.408;2023-05-28T08:00:00;7.8;;;4.4;;
23252;SDS011;11795;47.054;15.408;2023-05-28T08:02:00;7.8;;;4.4;;
23252;SDS011;11795;47.054;15.408;2023-05-28T08:04:00;7.8;;;4.4;;
23252;SDS011;11795;47.054;15.408;2023-05-28T08:06:00;7.7;;;4.0;;
23252;SDS011;11795;47.054;15.408;2023-05-28T08:08:00;7.7;;;4.0;;
23252;SDS011;11795;47.054;15.408;2023-05-28T08:10:00;8.6;;;4.0;;
23252;SDS011;11795;47.054;15.408;2023-05-28T08:12:01;8.6;;;4.0;;
23252;SDS011;11795;47.054;15.408;2023-05-28T08:14:00;8.6;;;4.0;;
23252;SDS011;11795;47.054;15.408;2023-05-28T08:16:00;7.8;;;3.4;;
23252;SDS011;11795;47.054;15.408;2023-05-28T08:18:00;7.8;;;3.4;;
23252;SDS011;11795;47.054;15.408;2023-05-28T08:20:00;5.4;;;3.4;;
23252;SDS011;11795;47.054;15.408;2023-05-28T08:22:00;5.4;;;3.4;;
23252;SDS011;11795;47.054;15.408;2023-05-28T08:24:01;5.4;;;3.4;;
23252;SDS011;11795;47.054;15.408;2023-05-28T08:26:00;7.7;;;3.8;;
23252;SDS011;11795;47.054;15.408;2023-05-28T08:28:00;7.7;;;3.8;;
23252;SDS011;11795;47.054;15.408;2023-05-28T08:30:00;7.7;;;3.8;;
23252;SDS011;11795;47.054;15.408;2023-05-28T08:32:00;8.2;;;3.6;;
23252;SDS011;11795;47.054;15.408;2023-05-28T08:34:00;8.2;;;3.6;;
23252;SDS011;11795;47.054;15.408;2023-05-28T08:36:00;8.6;;;4.1;;
23252;SDS011;11795;47.054;15.408;2023-05-28T08:38:00;8.6;;;4.1;;
23252;SDS011;11795;47.054;15.408;2023-05-28T08:40:00;8.6;;;4.1;;
23252;SDS011;11795;47.054;15.408;2023-05-28T08:42:01;8.0;;;4.0;;
23252;SDS011;11795;47.054;15.408;2023-05-28T08:44:00;8.0;;;4.0;;
23252;SDS011;11795;47.054;15.408;2023-05-28T08:46:00;8.2;;;4.1;;
23252;SDS011;11795;47.054;15.408;2023-05-28T08:48:00;8.2;;;4.1;;
23252;SDS011;11795;47.054;15.408;2023-05-28T08:50:02;8.2;;;4.1;;
23252;SDS011;11795;47.054;15.408;2023-05-28T08:52:01;7.5;;;4.1;;
23252;SDS011;11795;47.054;15.408;2023-05-28T08:54:00;7.5;;;4.1;;
23252;SDS011;11795;47.054;15.408;2023-05-28T08:56:00;5.9;;;3.7;;
23252;SDS011;11795;47.054;15.408;2023-05-28T08:58:00;5.9;;;3.7;;
23252;SDS011;11795;47.054;15.408;2023-05-28T09:00:00;5.9;;;3.7;;
23252;SDS011;11795;47.054;15.408;2023-05-28T09:02:00;5.7;;;3.6;;
23252;SDS011;11795;47.054;15.408;2023-05-28T09:04:00;5.7;;;3.6;;
23252;SDS011;11795;47.054;15.408;2023-05-28T09:06:00;7.3;;;3.8;;
23252;SDS011;11795;47.054;15.408;2023-05-28T09:08:00;7.3;;;3.8;;
23252;SDS011;11795;47.054;15.408;2023-05-28T09:10:01;7.3;;;3.8;;
23252;SDS011;11795;47.054;15.408;2023-05-28T09:12:02;6.9;;;3.9;;
23252;SDS011;11795;47.054;15.408;2023-05-28T09:14:07;6.9;;;3.9;;
23252;SDS011;11795;47.054;15.408;2023-05-28T09:16:00;6.6;;;3.7;;
23252;SDS011;11795;47.054;15.408;2023-05-28T09:18:00;6.6;;;3.7;;
23252;SDS011;11795;47.054;15.408;2023-05-28T09:20:00;6.6;;;3.7;;
23252;SDS011;11795;47.054;15.408;2023-05-28T09:22:01;6.7;;;3.8;;
23252;SDS011;11795;47.054;15.408;2023-05-28T09:24:00;6.7;;;3.8;;
23252;SDS011;11795;47.054;15.408;2023-05-28T09:26:00;6.7;;;3.8;;
23252;SDS011;11795;47.054;15.408;2023-05-28T09:28:00;6.7;;;3.8;;
23252;SDS011;11795;47.054;15.408;2023-05-28T09:30:02;6.7;;;3.8;;
23252;SDS011;11795;47.054;15.408;2023-05-28T09:32:01;7.6;;;4.2;;
23252;SDS011;11795;47.054;15.408;2023-05-28T09:34:03;7.6;;;4.2;;
23252;SDS011;11795;47.054;15.408;2023-05-28T09:36:01;6.7;;;4.0;;
23252;SDS011;11795;47.054;15.408;2023-05-28T09:38:01;6.7;;;4.0;;
23252;SDS011;11795;47.054;15.408;2023-05-28T09:40:00;6.7;;;4.0;;
23252;SDS011;11795;47.054;15.408;2023-05-28T09:42:04;7.9;;;3.8;;
23252;SDS011;11795;47.054;15.408;2023-05-28T09:44:01;7.9;;;3.8;;
23252;SDS011;11795;47.054;15.408;2023-05-28T09:46:07;6.5;;;3.8;;
23252;SDS011;11795;47.054;15.408;2023-05-28T09:48:01;6.5;;;3.8;;
23252;SDS011;11795;47.054;15.408;2023-05-28T09:50:01;6.5;;;3.8;;
23252;SDS011;11795;47.054;15.408;2023-05-28T09:52:01;5.9;;;3.5;;
23252;SDS011;11795;47.054;15.408;2023-05-28T09:54:01;5.9;;;3.5;;
23252;SDS011;11795;47.054;15.408;2023-05-28T09:56:00;6.3;;;3.7;;
23252;SDS011;11795;47.054;15.408;2023-05-28T09:58:01;6.3;;;3.7;;
23252;SDS011;11795;47.054;15.408;2023-05-28T10:00:02;6.3;;;3.7;;
23252;SDS011;11795;47.054;15.408;2023-05-28T10:02:00;7.4;;;4.0;;
23252;SDS011;11795;47.054;15.408;2023-05-28T10:04:01;7.4;;;4.0;;
23252;SDS011;11795;47.054;15.408;2023-05-28T10:06:01;7.6;;;4.2;;
23252;SDS011;11795;47.054;15.408;2023-05-28T10:08:00;7.6;;;4.2;;
23252;SDS011;11795;47.054;15.408;2023-05-28T10:10:01;7.6;;;4.2;;
23252;SDS011;11795;47.054;15.408;2023-05-28T10:12:03;8.3;;;4.0;;
23252;SDS011;11795;47.054;15.408;2023-05-28T10:14:00;8.3;;;4.0;;
23252;SDS011;11795;47.054;15.408;2023-05-28T10:16:00;6.8;;;3.9;;
23252;SDS011;11795;47.054;15.408;2023-05-28T10:18:01;6.8;;;3.9;;
23252;SDS011;11795;47.054;15.408;2023-05-28T10:20:00;6.8;;;3.9;;
23252;SDS011;11795;47.054;15.408;2023-05-28T10:22:00;7.1;;;3.9;;
23252;SDS011;11795;47.054;15.408;2023-05-28T10:24:00;7.1;;;3.9;;
23252;SDS011;11795;47.054;15.408;2023-05-28T10:26:00;6.4;;;3.9;;
23252;SDS011;11795;47.054;15.408;2023-05-28T10:28:01;6.4;;;3.9;;
23252;SDS011;11795;47.054;15.408;2023-05-28T10:30:02;6.4;;;3.9;;
23252;SDS011;11795;47.054;15.408;2023-05-28T10:32:00;7.6;;;3.8;;
23252;SDS011;11795;47.054;15.408;2023-05-28T10:34:00;7.6;;;3.8;;
23252;SDS011;11795;47.054;15.408;2023-05-28T10:36:00;8.1;;;3.8;;
23252;SDS011;11795;47.054;15.408;2023-05-28T10:38:04;8.1;;;3.8;;
23252;SDS011;11795;47.054;15.408;2023-05-28T10:40:00;8.1;;;3.8;;
23252;SDS011;11795;47.054;15.408;2023-05-28T10:42:00;7.4;;;4.3;;
23252;SDS011;11795;47.054;15.408;2023-05-28T10:44:05;7.4;;;4.3;;
23252;SDS011;11795;47.054;15.408;2023-05-28T10:46:00;6.4;;;3.9;;
23252;SDS011;11795;47.054;15.408;2023-05-28T10:48:00;6.4;;;3.9;;
23252;SDS011;11795;47.054;15.408;2023-05-28T10:50:01;6.4;;;3.9;;
23252;SDS011;11795;47.054;15.408;2023-05-28T10:52:00;7.3;;;4.2;;
23252;SDS011;11795;47.054;15.408;2023-05-28T10:54:00;7.3;;;4.2;;
23252;SDS011;11795;47.054;15.408;2023-05-28T10:56:00;7.3;;;4.2;;
23252;SDS011;11795;47.054;15.408;2023-05-28T10:58:06;7.3;;;4.2;;
23252;SDS011;11795;47.054;15.408;2023-05-28T11:00:00;7.3;;;4.2;;
23252;SDS011;11795;47.054;15.408;2023-05-28T11:02:02;6.2;;;3.7;;
23252;SDS011;11795;47.054;15.408;2023-05-28T11:04:00;6.2;;;3.7;;
23252;SDS011;11795;47.054;15.408;2023-05-28T11:06:02;5.8;;;3.6;;
23252;SDS011;11795;47.054;15.408;2023-05-28T11:08:00;5.8;;;3.6;;
23252;SDS011;11795;47.054;15.408;2023-05-28T11:10:00;5.8;;;3.6;;
23252;SDS011;11795;47.054;15.408;2023-05-28T11:12:02;4.9;;;3.7;;
23252;SDS011;11795;47.054;15.408;2023-05-28T11:14:00;4.9;;;3.7;;
23252;SDS011;11795;47.054;15.408;2023-05-28T11:16:08;6.7;;;3.9;;
23252;SDS011;11795;47.054;15.408;2023-05-28T11:18:00;6.7;;;3.9;;
23252;SDS011;11795;47.054;15.408;2023-05-28T11:20:01;6.7;;;3.9;;
23252;SDS011;11795;47.054;15.408;2023-05-28T11:22:00;7.3;;;3.9;;
23252;SDS011;11795;47.054;15.408;2023-05-28T11:24:01;7.3;;;3.9;;
23252;SDS011;11795;47.054;15.408;2023-05-28T11:26:00;8.5;;;4.1;;
23252;SDS011;11795;47.054;15.408;2023-05-28T11:28:00;8.5;;;4.1;;
23252;SDS011;11795;47.054;15.408;2023-05-28T11:30:01;8.5;;;4.1;;
23252;SDS011;11795;47.054;15.408;2023-05-28T11:32:00;6.0;;;3.6;;
23252;SDS011;11795;47.054;15.408;2023-05-28T11:34:00;6.0;;;3.6;;
23252;SDS011;11795;47.054;15.408;2023-05-28T11:36:01;7.1;;;4.0;;
23252;SDS011;11795;47.054;15.408;2023-05-28T11:38:00;7.1;;;4.0;;
23252;SDS011;11795;47.054;15.408;2023-05-28T11:40:01;7.1;;;4.0;;
23252;SDS011;11795;47.054;15.408;2023-05-28T11:42:00;8.0;;;4.1;;
23252;SDS011;11795;47.054;15.408;2023-05-28T11:44:00;8.0;;;4.1;;
23252;SDS011;11795;47.054;15.408;2023-05-28T11:46:00;7.7;;;4.0;;
23252;SDS011;11795;47.054;15.408;2023-05-28T11:48:00;7.7;;;4.0;;
23252;SDS011;11795;47.054;15.408;2023-05-28T11:50:05;7.7;;;4.0;;
23252;SDS011;11795;47.054;15.408;2023-05-28T11:52:01;7.0;;;3.8;;
23252;SDS011;11795;47.054;15.408;2023-05-28T11:54:00;7.0;;;3.8;;
23252;SDS011;11795;47.054;15.408;2023-05-28T11:56:00;6.9;;;4.3;;
23252;SDS011;11795;47.054;15.408;2023-05-28T11:58:00;6.9;;;4.3;;
23252;SDS011;11795;47.054;15.408;2023-05-28T12:00:01;6.9;;;4.3;;
23252;SDS011;11795;47.054;15.408;2023-05-28T12:04:04;5.8;;;3.8;;
23252;SDS011;11795;47.054;15.408;2023-05-28T12:06:00;6.4;;;4.0;;
23252;SDS011;11795;47.054;15.408;2023-05-28T12:08:00;6.4;;;4.0;;
23252;SDS011;11795;47.054;15.408;2023-05-28T12:10:01;6.4;;;4.0;;
23252;SDS011;11795;47.054;15.408;2023-05-28T12:12:01;5.0;;;3.6;;
23252;SDS011;11795;47.054;15.408;2023-05-28T12:14:07;5.0;;;3.6;;